createdAt,value
2023-04-24T18:32:01.176Z,1005.76
2023-04-24T18:33:01.266Z,1005.74
2023-04-24T18:34:01.040Z,1005.74
2023-04-24T18:35:01.000Z,1005.77
2023-04-24T18:36:00.948Z,1005.76
2023-04-24T18:37:00.889Z,1005.76
2023-04-24T18:38:00.845Z,1005.77
2023-04-24T18:39:00.789Z,1005.77
2023-04-24T18:40:00.756Z,1005.75
2023-04-24T18:41:00.698Z,1005.73
2023-04-24T18:42:00.650Z,1005.79
2023-04-24T18:43:00.697Z,1005.77
2023-04-24T18:44:00.668Z,1005.80
2023-04-24T18:45:00.640Z,1005.75
2023-04-24T18:46:00.565Z,1005.82
2023-04-24T18:47:00.531Z,1005.82
2023-04-24T18:48:00.412Z,1005.84
2023-04-24T18:49:00.336Z,1005.82
2023-04-24T18:50:00.283Z,1005.86
2023-04-24T18:51:00.234Z,1005.91
2023-04-24T18:52:01.770Z,1005.86
2023-04-24T18:53:00.182Z,1005.90
2023-04-24T18:54:00.139Z,1005.93
2023-04-24T18:55:00.059Z,1005.94
2023-04-24T18:56:00.009Z,1005.99
2023-04-24T18:56:59.960Z,1005.96
2023-04-24T18:57:59.912Z,1005.99
2023-04-24T18:58:59.882Z,1006.00
2023-04-24T19:00:00.041Z,1006.02
2023-04-24T19:00:59.793Z,1005.99
2023-04-24T19:01:59.879Z,1006.02
2023-04-24T19:03:00.149Z,1006.03
2023-04-24T19:04:00.046Z,1006.05
2023-04-24T19:04:59.611Z,1006.04
2023-04-24T19:05:59.572Z,1006.09
2023-04-24T19:06:59.503Z,1006.12
2023-04-24T19:07:59.460Z,1006.12
2023-04-24T19:08:59.421Z,1006.13
2023-04-24T19:09:59.371Z,1006.14
2023-04-24T19:10:59.327Z,1006.14
2023-04-24T19:11:59.277Z,1006.16
2023-04-24T19:12:59.236Z,1006.17
2023-04-24T19:13:59.187Z,1006.21
2023-04-24T19:14:59.147Z,1006.19
2023-04-24T19:15:59.147Z,1006.20
2023-04-24T19:16:59.051Z,1006.19
2023-04-24T19:17:59.030Z,1006.19
2023-04-24T19:18:58.966Z,1006.21
2023-04-24T19:19:58.938Z,1006.23
2023-04-24T19:20:58.948Z,1006.22
2023-04-24T19:21:58.827Z,1006.24
2023-04-24T19:22:58.939Z,1006.23
2023-04-24T19:23:58.742Z,1006.23
2023-04-24T19:24:58.699Z,1006.22
2023-04-24T19:25:58.673Z,1006.20
2023-04-24T19:26:58.601Z,1006.26
2023-04-24T19:27:58.564Z,1006.26
2023-04-24T19:28:58.513Z,1006.30
2023-04-24T19:29:58.471Z,1006.30
2023-04-24T19:30:58.435Z,1006.34
2023-04-24T19:31:58.433Z,1006.34
2023-04-24T19:32:58.401Z,1006.30
2023-04-24T19:33:58.293Z,1006.30
2023-04-24T19:34:58.254Z,1006.34
2023-04-24T19:35:58.222Z,1006.38
2023-04-24T19:36:58.154Z,1006.39
2023-04-24T19:37:58.118Z,1006.40
2023-04-24T19:38:58.152Z,1006.38
2023-04-24T19:39:58.176Z,1006.40
2023-04-24T19:40:58.112Z,1006.41
2023-04-24T19:41:57.932Z,1006.42
2023-04-24T19:42:57.892Z,1006.37
2023-04-24T19:43:57.864Z,1006.39
2023-04-24T19:44:57.802Z,1006.42
2023-04-24T19:45:57.798Z,1006.39
2023-04-24T19:46:57.711Z,1006.36
2023-04-24T19:47:57.710Z,1006.36
2023-04-24T19:48:57.621Z,1006.39
2023-04-24T19:49:57.576Z,1006.43
2023-04-24T19:50:57.526Z,1006.45
2023-04-24T19:51:57.539Z,1006.47
2023-04-24T19:52:57.442Z,1006.46
2023-04-24T19:53:57.406Z,1006.46
2023-04-24T19:54:57.354Z,1006.42
2023-04-24T19:55:57.347Z,1006.42
2023-04-24T19:56:57.277Z,1006.42
2023-04-24T19:57:57.221Z,1006.46
2023-04-24T19:58:57.172Z,1006.45
2023-04-24T19:59:57.145Z,1006.41
2023-04-24T20:00:57.151Z,1006.43
2023-04-24T20:01:57.306Z,1006.45
2023-04-24T20:02:57.069Z,1006.44
2023-04-24T20:03:57.157Z,1006.44
2023-04-24T20:04:57.006Z,1006.45
2023-04-24T20:05:56.870Z,1006.46
2023-04-24T20:06:56.816Z,1006.40
2023-04-24T20:07:56.787Z,1006.41
2023-04-24T20:08:56.732Z,1006.41
2023-04-24T20:09:56.692Z,1006.44
2023-04-24T20:10:56.636Z,1006.46
2023-04-24T20:11:56.593Z,1006.42
2023-04-24T20:12:56.542Z,1006.47
2023-04-24T20:13:56.502Z,1006.42
2023-04-24T20:14:56.453Z,1006.45
2023-04-24T20:15:56.473Z,1006.42
2023-04-24T20:16:56.376Z,1006.43
2023-04-24T20:17:56.327Z,1006.42
2023-04-24T20:18:56.275Z,1006.44
2023-04-24T20:19:56.288Z,1006.44
2023-04-24T20:20:56.197Z,1006.43
2023-04-24T20:21:56.140Z,1006.46
2023-04-24T20:22:56.094Z,1006.45
2023-04-24T20:23:56.073Z,1006.44
2023-04-24T20:24:56.015Z,1006.43
2023-04-24T20:25:55.961Z,1006.41
2023-04-24T20:26:55.921Z,1006.46
2023-04-24T20:27:55.872Z,1006.45
2023-04-24T20:28:55.983Z,1006.43
2023-04-24T20:29:55.789Z,1006.42
2023-04-24T20:30:55.741Z,1006.44
2023-04-24T20:31:55.850Z,1006.43
2023-04-24T20:32:55.712Z,1006.44
2023-04-24T20:33:55.624Z,1006.47
2023-04-24T20:34:55.557Z,1006.45
2023-04-24T20:35:55.520Z,1006.43
2023-04-24T20:36:55.477Z,1006.51
2023-04-24T20:37:55.436Z,1006.50
2023-04-24T20:38:55.375Z,1006.51
2023-04-24T20:39:55.356Z,1006.48
2023-04-24T20:40:58.085Z,1006.47
2023-04-24T20:41:55.241Z,1006.45
2023-04-24T20:42:55.199Z,1006.46
2023-04-24T20:43:55.153Z,1006.50
2023-04-24T20:44:55.100Z,1006.48
2023-04-24T20:45:55.059Z,1006.46
2023-04-24T20:46:55.079Z,1006.48
2023-04-24T20:47:55.034Z,1006.47
2023-04-24T20:48:54.934Z,1006.50
2023-04-24T20:49:54.884Z,1006.50
2023-04-24T20:50:54.834Z,1006.49
2023-04-24T20:51:54.787Z,1006.50
2023-04-24T20:52:54.746Z,1006.50
2023-04-24T20:53:54.703Z,1006.47
2023-04-24T20:54:54.687Z,1006.48
2023-04-24T20:55:54.627Z,1006.48
2023-04-24T20:56:54.563Z,1006.46
2023-04-24T20:57:54.517Z,1006.46
2023-04-24T20:58:56.930Z,1006.46
2023-04-24T20:59:54.429Z,1006.43
2023-04-24T21:00:54.434Z,1006.44
2023-04-24T21:01:54.386Z,1006.44
2023-04-24T21:02:54.445Z,1006.41
2023-04-24T21:03:54.598Z,1006.37
2023-04-24T21:04:54.198Z,1006.35
2023-04-24T21:05:54.153Z,1006.34
2023-04-24T21:06:54.108Z,1006.36
2023-04-24T21:07:54.066Z,1006.38
2023-04-24T21:08:54.015Z,1006.36
2023-04-24T21:09:53.975Z,1006.41
2023-04-24T21:10:53.942Z,1006.37
2023-04-24T21:11:53.917Z,1006.41
2023-04-24T21:12:53.839Z,1006.37
2023-04-24T21:13:53.790Z,1006.44
2023-04-24T21:14:53.760Z,1006.42
2023-04-24T21:15:53.702Z,1006.44
2023-04-24T21:16:53.705Z,1006.43
2023-04-24T21:17:53.665Z,1006.46
2023-04-24T21:18:53.573Z,1006.47
2023-04-24T21:19:53.548Z,1006.47
2023-04-24T21:20:53.603Z,1006.48
2023-04-24T21:21:53.427Z,1006.49
2023-04-24T21:22:53.410Z,1006.49
2023-04-24T21:23:53.338Z,1006.52
2023-04-24T21:24:53.291Z,1006.52
2023-04-24T21:25:53.243Z,1006.52
2023-04-24T21:26:53.197Z,1006.50
2023-04-24T21:27:53.177Z,1006.48
2023-04-24T21:28:53.109Z,1006.47
2023-04-24T21:29:53.064Z,1006.47
2023-04-24T21:30:53.020Z,1006.46
2023-04-24T21:31:53.019Z,1006.45
2023-04-24T21:32:53.022Z,1006.45
2023-04-24T21:33:52.881Z,1006.46
2023-04-24T21:34:52.838Z,1006.47
2023-04-24T21:35:52.796Z,1006.44
2023-04-24T21:36:52.741Z,1006.44
2023-04-24T21:37:52.702Z,1006.40
2023-04-24T21:38:52.653Z,1006.44
2023-04-24T21:39:52.614Z,1006.40
2023-04-24T21:40:52.563Z,1006.40
2023-04-24T21:41:52.511Z,1006.41
2023-04-24T21:42:52.469Z,1006.40
2023-04-24T21:43:52.802Z,1006.39
2023-04-24T21:44:52.381Z,1006.41
2023-04-24T21:45:52.378Z,1006.38
2023-04-24T21:46:52.285Z,1006.37
2023-04-24T21:47:52.289Z,1006.35
2023-04-24T21:48:52.192Z,1006.37
2023-04-24T21:49:52.148Z,1006.43
2023-04-24T21:50:52.107Z,1006.42
2023-04-24T21:51:52.061Z,1006.41
2023-04-24T21:52:52.015Z,1006.43
2023-04-24T21:53:52.106Z,1006.40
2023-04-24T21:54:51.921Z,1006.42
2023-04-24T21:55:51.896Z,1006.43
2023-04-24T21:56:51.836Z,1006.46
2023-04-24T21:57:51.787Z,1006.43
2023-04-24T21:58:51.740Z,1006.46
2023-04-24T21:59:51.774Z,1006.45
2023-04-24T22:00:51.649Z,1006.42
2023-04-24T22:01:51.683Z,1006.40
2023-04-24T22:02:51.683Z,1006.42
2023-04-24T22:03:51.982Z,1006.40
2023-04-24T22:04:51.709Z,1006.43
2023-04-24T22:05:51.440Z,1006.39
2023-04-24T22:06:51.391Z,1006.42
2023-04-24T22:07:51.332Z,1006.42
2023-04-24T22:08:51.287Z,1006.43
2023-04-24T22:09:51.246Z,1006.43
2023-04-24T22:10:51.196Z,1006.43
2023-04-24T22:11:51.149Z,1006.43
2023-04-24T22:12:51.104Z,1006.43
2023-04-24T22:13:51.202Z,1006.44
2023-04-24T22:14:51.036Z,1006.47
2023-04-24T22:15:51.097Z,1006.46
2023-04-24T22:16:50.926Z,1006.44
2023-04-24T22:17:50.902Z,1006.44
2023-04-24T22:18:50.834Z,1006.48
2023-04-24T22:19:50.782Z,1006.46
2023-04-24T22:20:50.752Z,1006.44
2023-04-24T22:21:50.693Z,1006.41
2023-04-24T22:22:50.644Z,1006.42
2023-04-24T22:23:51.159Z,1006.41
2023-04-24T22:24:50.553Z,1006.40
2023-04-24T22:25:50.509Z,1006.42
2023-04-24T22:26:50.472Z,1006.39
2023-04-24T22:27:50.427Z,1006.44
2023-04-24T22:28:50.377Z,1006.47
2023-04-24T22:29:50.332Z,1006.45
2023-04-24T22:30:50.273Z,1006.44
2023-04-24T22:31:50.292Z,1006.47
2023-04-24T22:32:50.218Z,1006.47
2023-04-24T22:33:50.323Z,1006.44
2023-04-24T22:34:50.118Z,1006.48
2023-04-24T22:35:50.074Z,1006.49
2023-04-24T22:36:50.010Z,1006.49
2023-04-24T22:37:49.953Z,1006.52
2023-04-24T22:38:49.910Z,1006.50
2023-04-24T22:39:49.861Z,1006.52
2023-04-24T22:40:49.817Z,1006.52
2023-04-24T22:41:49.771Z,1006.53
2023-04-24T22:42:49.732Z,1006.47
2023-04-24T22:43:49.895Z,1006.47
2023-04-24T22:44:49.635Z,1006.49
2023-04-24T22:45:49.587Z,1006.48
2023-04-24T22:46:49.538Z,1006.52
2023-04-24T22:47:49.553Z,1006.51
2023-04-24T22:48:49.491Z,1006.50
2023-04-24T22:49:49.411Z,1006.44
2023-04-24T22:50:49.360Z,1006.48
2023-04-24T22:51:49.308Z,1006.47
2023-04-24T22:52:49.478Z,1006.50
2023-04-24T22:53:49.775Z,1006.47
2023-04-24T22:54:49.251Z,1006.45
2023-04-24T22:55:49.168Z,1006.42
2023-04-24T22:56:49.094Z,1006.40
2023-04-24T22:57:49.034Z,1006.41
2023-04-24T22:58:49.002Z,1006.40
2023-04-24T22:59:48.942Z,1006.36
2023-04-24T23:00:48.922Z,1006.39
2023-04-24T23:01:48.859Z,1006.40
2023-04-24T23:02:48.879Z,1006.37
2023-04-24T23:03:49.073Z,1006.38
2023-04-24T23:04:48.712Z,1006.38
2023-04-24T23:05:48.669Z,1006.36
2023-04-24T23:06:48.633Z,1006.34
2023-04-24T23:07:48.586Z,1006.36
2023-04-24T23:08:48.540Z,1006.33
2023-04-24T23:09:48.479Z,1006.36
2023-04-24T23:10:48.447Z,1006.34
2023-04-24T23:11:48.391Z,1006.40
2023-04-24T23:12:48.345Z,1006.37
2023-04-24T23:13:48.437Z,1006.44
2023-04-24T23:14:48.259Z,1006.44
2023-04-24T23:15:48.207Z,1006.42
2023-04-24T23:16:48.211Z,1006.42
2023-04-24T23:17:48.148Z,1006.43
2023-04-24T23:18:48.065Z,1006.41
2023-04-24T23:19:48.042Z,1006.42
2023-04-24T23:20:47.976Z,1006.42
2023-04-24T23:21:47.932Z,1006.44
2023-04-24T23:22:47.889Z,1006.42
2023-04-24T23:23:48.141Z,1006.44
2023-04-24T23:24:47.796Z,1006.41
2023-04-24T23:25:47.742Z,1006.44
2023-04-24T23:26:47.702Z,1006.41
2023-04-24T23:27:47.677Z,1006.41
2023-04-24T23:28:47.616Z,1006.42
2023-04-24T23:29:47.579Z,1006.43
2023-04-24T23:30:47.520Z,1006.40
2023-04-24T23:31:47.514Z,1006.43
2023-04-24T23:32:47.435Z,1006.41
2023-04-24T23:33:47.646Z,1006.44
2023-04-24T23:34:47.333Z,1006.46
2023-04-24T23:35:47.309Z,1006.44
2023-04-24T23:36:47.245Z,1006.46
2023-04-24T23:37:47.190Z,1006.44
2023-04-24T23:38:50.576Z,1006.41
2023-04-24T23:39:47.099Z,1006.41
2023-04-24T23:40:47.059Z,1006.43
2023-04-24T23:41:47.010Z,1006.39
2023-04-24T23:42:54.007Z,1006.36
2023-04-24T23:43:47.199Z,1006.46
2023-04-24T23:44:46.875Z,1006.38
2023-04-24T23:45:46.853Z,1006.42
2023-04-24T23:46:46.777Z,1006.38
2023-04-24T23:47:46.811Z,1006.36
2023-04-24T23:48:46.706Z,1006.39
2023-04-24T23:49:46.647Z,1006.35
2023-04-24T23:50:46.596Z,1006.36
2023-04-24T23:51:46.569Z,1006.36
2023-04-24T23:52:46.507Z,1006.37
2023-04-24T23:53:46.557Z,1006.36
2023-04-24T23:54:46.431Z,1006.38
2023-04-24T23:55:46.371Z,1006.37
2023-04-24T23:56:46.319Z,1006.36
2023-04-24T23:57:46.272Z,1006.41
2023-04-24T23:58:46.227Z,1006.34
2023-04-24T23:59:46.176Z,1006.36
